Time;durP1;ratioP1;P1;durP2;ratioP2;P2;SDS_P1;SDS_P2;PMS_P1;PMS_P2;Temp;Humidity;BMP_temperature;BMP_pressure;BME280_temperature;BME280_humidity;BME280_pressure;Samples;Min_cycle;Max_cycle;Signal;HPM_P1;HPM_P2
2021/11/30 00:00:11;;;;;;;2.25;2.02;;;1.90;99.90;;;;;;1953742;72;21063;-72
2021/11/30 00:02:38;;;;;;;6.03;2.27;;;1.90;99.90;;;;;;1970858;73;21048;-73
2021/11/30 00:05:04;;;;;;;2.05;1.92;;;1.90;99.90;;;;;;1974001;72;21059;-73
2021/11/30 00:07:30;;;;;;;4.58;2.47;;;1.90;99.90;;;;;;1958646;72;21059;-71
2021/11/30 00:12:25;;;;;;;3.27;2.52;;;1.90;99.90;;;;;;1971727;72;21074;-74
2021/11/30 00:14:51;;;;;;;2.62;2.42;;;1.90;99.90;;;;;;1972122;73;21480;-72
2021/11/30 00:17:17;;;;;;;3.85;2.70;;;1.90;99.90;;;;;;1971119;73;21495;-72
2021/11/30 00:19:43;;;;;;;5.37;2.75;;;2.00;99.90;;;;;;1950512;72;21160;-73
2021/11/30 00:22:10;;;;;;;2.12;1.98;;;2.00;99.90;;;;;;1964854;72;21091;-73
2021/11/30 00:24:36;;;;;;;2.98;2.50;;;2.10;99.90;;;;;;1971639;72;21570;-72
2021/11/30 00:27:02;;;;;;;2.83;2.60;;;2.10;99.90;;;;;;1972138;73;21475;-73
2021/11/30 00:29:28;;;;;;;4.30;2.98;;;2.10;99.90;;;;;;1964509;72;21561;-73
2021/11/30 00:31:54;;;;;;;2.85;2.58;;;1.90;99.90;;;;;;1949888;72;21050;-72
2021/11/30 00:34:20;;;;;;;7.90;3.02;;;2.00;99.90;;;;;;1966351;72;21064;-73
2021/11/30 00:36:46;;;;;;;4.12;2.92;;;2.10;99.90;;;;;;1968346;72;21115;-71
2021/11/30 00:39:12;;;;;;;2.50;2.33;;;2.20;99.90;;;;;;1945074;72;21062;-72
2021/11/30 00:41:44;;;;;;;3.52;2.90;;;2.20;99.90;;;;;;1954535;72;21144;-72
2021/11/30 00:44:06;;;;;;;3.12;2.87;;;2.10;99.90;;;;;;1967883;72;21128;-73
2021/11/30 00:46:38;;;;;;;4.03;2.87;;;2.10;99.90;;;;;;1952179;72;21050;-72
2021/11/30 00:49:06;;;;;;;7.05;3.40;;;2.10;99.90;;;;;;1968200;72;21247;-74
2021/11/30 00:51:32;;;;;;;4.97;3.70;;;2.00;99.90;;;;;;1948308;72;21031;-74
2021/11/30 00:53:58;;;;;;;5.65;3.30;;;2.00;99.90;;;;;;1944753;72;21451;-73
2021/11/30 00:56:24;;;;;;;84.42;27.00;;;2.00;99.90;;;;;;1969639;73;21475;-73
2021/11/30 00:58:51;;;;;;;21.55;9.10;;;2.00;99.90;;;;;;1955300;72;21478;-73
2021/11/30 01:01:17;;;;;;;5.10;3.95;;;2.10;99.90;;;;;;1960447;72;21589;-72
2021/11/30 01:03:43;;;;;;;6.25;4.10;;;2.20;99.90;;;;;;1966888;72;21093;-72
2021/11/30 01:06:09;;;;;;;7.00;4.85;;;2.30;99.90;;;;;;1973478;72;21134;-72
2021/11/30 01:08:35;;;;;;;6.40;4.47;;;2.30;99.90;;;;;;1967505;72;21031;-72
2021/11/30 01:11:02;;;;;;;5.83;4.15;;;2.30;99.90;;;;;;1956022;72;21135;-72
2021/11/30 01:13:30;;;;;;;6.55;3.65;;;2.30;99.90;;;;;;1970770;72;21118;-73
2021/11/30 01:15:56;;;;;;;4.92;3.92;;;2.30;99.90;;;;;;1974379;72;21079;-73
2021/11/30 01:18:22;;;;;;;5.80;3.27;;;2.30;99.90;;;;;;1967077;72;21463;-73
2021/11/30 01:20:48;;;;;;;3.50;3.20;;;2.30;99.90;;;;;;1971693;72;21458;-73
2021/11/30 01:23:14;;;;;;;4.35;3.42;;;2.20;99.90;;;;;;1956869;72;21512;-73
2021/11/30 01:25:40;;;;;;;3.80;3.27;;;2.20;99.90;;;;;;1960946;72;21036;-74
2021/11/30 01:28:06;;;;;;;5.72;3.87;;;2.30;99.90;;;;;;1953029;72;21108;-73
2021/11/30 01:30:32;;;;;;;3.33;3.02;;;2.20;99.90;;;;;;1962528;72;21056;-74
2021/11/30 01:32:59;;;;;;;3.72;3.25;;;2.20;99.90;;;;;;1966338;72;21130;-73
2021/11/30 01:35:25;;;;;;;4.10;3.70;;;2.30;99.90;;;;;;1964566;72;21136;-73
2021/11/30 01:37:51;;;;;;;7.77;3.60;;;2.30;99.90;;;;;;1971168;73;21218;-73
2021/11/30 01:40:17;;;;;;;4.45;3.80;;;2.40;99.90;;;;;;1967848;72;21054;-73
2021/11/30 01:42:49;;;;;;;4.47;3.27;;;2.40;99.90;;;;;;1960866;72;21477;-73
2021/11/30 01:45:19;;;;;;;5.42;2.95;;;2.40;99.90;;;;;;1969134;72;21104;-74
2021/11/30 01:47:58;;;;;;;10.05;2.60;;;2.40;99.90;;;;;;1959572;72;21145;-73
2021/11/30 01:50:10;;;;;;;6.55;3.25;;;2.40;99.90;;;;;;1954490;72;21132;-74
2021/11/30 01:52:36;;;;;;;4.47;2.83;;;2.40;99.90;;;;;;1971974;72;21040;-73
2021/11/30 01:55:02;;;;;;;2.67;2.47;;;2.40;99.90;;;;;;1967472;72;21248;-73
2021/11/30 01:57:28;;;;;;;3.42;2.67;;;2.50;99.90;;;;;;1970061;72;21685;-74
2021/11/30 01:59:54;;;;;;;6.75;2.77;;;2.50;99.90;;;;;;1960154;72;21529;-74
2021/11/30 02:02:20;;;;;;;4.35;3.05;;;2.50;99.90;;;;;;1953305;72;21151;-73
2021/11/30 02:04:47;;;;;;;4.10;2.30;;;2.60;99.90;;;;;;1970221;72;21120;-73
2021/11/30 02:07:13;;;;;;;2.83;2.62;;;2.60;99.90;;;;;;1959110;72;21148;-75
2021/11/30 02:09:39;;;;;;;3.00;2.70;;;2.50;99.90;;;;;;1949699;72;21027;-75
2021/11/30 02:12:05;;;;;;;2.35;2.15;;;2.50;99.90;;;;;;1963032;72;21050;-74
2021/11/30 02:14:31;;;;;;;4.75;2.22;;;2.60;99.90;;;;;;1953659;72;21058;-72
2021/11/30 02:16:58;;;;;;;2.37;1.98;;;2.60;99.90;;;;;;1951153;72;21055;-73
2021/11/30 02:19:25;;;;;;;2.40;2.17;;;2.50;99.90;;;;;;1963075;72;21136;-75
2021/11/30 02:21:51;;;;;;;3.08;1.90;;;2.50;99.90;;;;;;1956965;72;21145;-74
2021/11/30 02:24:17;;;;;;;3.45;2.00;;;2.60;99.90;;;;;;1957300;72;21111;-74
2021/11/30 02:26:43;;;;;;;2.92;1.92;;;2.50;99.90;;;;;;1956180;72;21059;-74
2021/11/30 02:29:09;;;;;;;3.67;1.85;;;2.50;99.90;;;;;;1964968;72;21019;-73
2021/11/30 02:31:35;;;;;;;2.27;1.70;;;2.50;99.90;;;;;;1968082;72;21117;-74
2021/11/30 02:34:04;;;;;;;4.95;1.80;;;2.60;99.90;;;;;;1958452;72;21549;-73
2021/11/30 02:36:32;;;;;;;3.90;2.15;;;2.50;99.90;;;;;;1963811;72;21085;-74
2021/11/30 02:38:57;;;;;;;5.60;1.92;;;2.50;99.90;;;;;;1953994;72;21166;-72
2021/11/30 02:41:23;;;;;;;1.80;1.70;;;2.60;99.90;;;;;;1956452;72;21131;-73
2021/11/30 02:43:49;;;;;;;5.28;1.82;;;2.50;99.90;;;;;;1949820;72;21190;-73
2021/11/30 02:46:15;;;;;;;2.25;1.60;;;2.50;99.90;;;;;;1954563;72;21133;-73
2021/11/30 02:48:42;;;;;;;1.12;1.02;;;2.60;99.90;;;;;;1971300;72;21063;-74
2021/11/30 02:51:08;;;;;;;3.05;1.30;;;2.60;99.90;;;;;;1965668;72;21032;-74
2021/11/30 02:53:36;;;;;;;1.80;1.55;;;2.60;99.90;;;;;;1955360;72;21051;-74
2021/11/30 02:56:02;;;;;;;1.65;1.30;;;2.50;99.90;;;;;;1957619;72;21464;-74
2021/11/30 02:58:29;;;;;;;2.40;1.40;;;2.50;99.90;;;;;;1972888;72;21060;-74
2021/11/30 03:00:55;;;;;;;2.35;1.22;;;2.50;99.90;;;;;;1964430;72;21032;-73
2021/11/30 03:03:21;;;;;;;3.65;1.65;;;2.50;99.90;;;;;;1944851;72;21550;-73
2021/11/30 03:05:47;;;;;;;4.45;1.47;;;2.50;99.90;;;;;;1953243;72;21487;-74
2021/11/30 03:08:13;;;;;;;2.17;1.27;;;2.40;99.90;;;;;;1969111;72;21482;-74
2021/11/30 03:10:40;;;;;;;3.45;1.65;;;2.30;99.90;;;;;;1963277;72;21137;-74
2021/11/30 03:13:06;;;;;;;2.58;1.40;;;2.30;99.90;;;;;;1972887;72;21055;-74
2021/11/30 03:15:32;;;;;;;3.92;1.70;;;2.40;99.90;;;;;;1968879;72;21124;-74
2021/11/30 03:17:58;;;;;;;1.25;1.15;;;2.40;99.90;;;;;;1969327;72;21040;-75
2021/11/30 03:20:24;;;;;;;2.52;1.20;;;2.30;99.90;;;;;;1975370;72;21131;-74
2021/11/30 03:22:50;;;;;;;3.00;1.30;;;2.40;99.90;;;;;;1966587;72;21068;-74
2021/11/30 03:25:17;;;;;;;2.15;1.30;;;2.30;99.90;;;;;;1959488;72;21063;-73
2021/11/30 03:27:45;;;;;;;5.22;1.32;;;2.30;99.90;;;;;;1967628;72;21589;-73
2021/11/30 03:30:11;;;;;;;5.95;1.67;;;2.20;99.90;;;;;;1964889;72;21126;-74
2021/11/30 03:35:21;;;;;;;1.62;1.45;;;2.20;99.90;;;;;;1967152;72;21056;-74
2021/11/30 03:37:47;;;;;;;3.95;1.80;;;2.20;99.90;;;;;;1963744;72;21156;-74
2021/11/30 03:40:13;;;;;;;3.70;1.50;;;2.20;99.90;;;;;;1967678;72;21054;-74
2021/11/30 03:42:39;;;;;;;1.95;1.47;;;2.10;99.90;;;;;;1952783;72;21067;-73
2021/11/30 03:45:05;;;;;;;2.67;1.67;;;2.20;99.90;;;;;;1961946;72;21062;-75
2021/11/30 03:47:32;;;;;;;4.33;1.87;;;2.20;99.90;;;;;;1944915;72;21144;-74
2021/11/30 03:49:58;;;;;;;3.75;1.40;;;2.10;99.90;;;;;;1959248;72;21447;-74
2021/11/30 03:52:24;;;;;;;23.60;1.80;;;2.10;99.90;;;;;;1972367;72;21471;-74
2021/11/30 03:54:50;;;;;;;2.85;1.40;;;2.20;99.90;;;;;;1963180;72;21495;-74
2021/11/30 03:57:16;;;;;;;3.30;1.70;;;2.30;99.90;;;;;;1961764;72;21136;-74
2021/11/30 03:59:42;;;;;;;2.67;1.55;;;2.30;99.90;;;;;;1958205;72;21139;-72
2021/11/30 04:02:08;;;;;;;6.25;1.80;;;2.30;99.90;;;;;;1962382;72;21149;-74
2021/11/30 04:04:40;;;;;;;3.25;1.57;;;2.40;99.90;;;;;;1974569;72;21060;-74
2021/11/30 04:07:02;;;;;;;2.92;1.42;;;2.40;99.90;;;;;;1971265;72;21438;-74
2021/11/30 04:09:28;;;;;;;4.78;1.62;;;2.40;99.90;;;;;;1960893;72;21055;-73
2021/11/30 04:11:55;;;;;;;2.42;1.35;;;2.40;99.90;;;;;;1962260;72;21060;-73
2021/11/30 04:14:21;;;;;;;3.02;1.82;;;2.40;99.90;;;;;;1956948;72;21108;-74
2021/11/30 04:16:47;;;;;;;2.98;1.35;;;2.40;99.90;;;;;;1944921;72;21132;-74
2021/11/30 04:19:13;;;;;;;3.12;1.62;;;2.40;99.90;;;;;;1949774;72;21209;-73
2021/11/30 04:21:39;;;;;;;2.50;1.80;;;2.40;99.90;;;;;;1944981;72;21066;-74
2021/11/30 04:24:05;;;;;;;2.02;1.60;;;2.50;99.90;;;;;;1953345;72;21125;-73
2021/11/30 04:26:31;;;;;;;2.70;1.30;;;2.50;99.90;;;;;;1963510;72;21499;-74
2021/11/30 04:28:57;;;;;;;3.75;1.85;;;2.50;99.90;;;;;;1967494;72;21553;-74
2021/11/30 04:31:24;;;;;;;2.52;1.42;;;2.60;99.90;;;;;;1973337;72;21056;-74
2021/11/30 04:33:50;;;;;;;7.37;1.82;;;2.50;99.90;;;;;;1973664;72;21137;-73
2021/11/30 04:36:16;;;;;;;1.72;1.37;;;2.50;99.90;;;;;;1956148;72;21129;-74
2021/11/30 04:38:42;;;;;;;3.87;2.20;;;2.50;99.90;;;;;;1962125;72;21482;-75
2021/11/30 04:41:08;;;;;;;6.15;1.72;;;2.50;99.90;;;;;;1964838;72;21568;-72
2021/11/30 04:43:35;;;;;;;6.67;1.65;;;2.50;99.90;;;;;;1957503;72;21462;-73
2021/11/30 04:46:05;;;;;;;3.58;1.50;;;2.50;99.90;;;;;;1945021;72;21066;-72
2021/11/30 04:48:30;;;;;;;2.67;1.42;;;2.50;99.90;;;;;;1969253;72;21067;-73
2021/11/30 04:50:58;;;;;;;4.85;1.87;;;2.50;99.90;;;;;;1973785;72;21491;-73
2021/11/30 04:53:26;;;;;;;7.08;1.57;;;2.50;99.90;;;;;;1973635;72;21100;-73
2021/11/30 04:55:52;;;;;;;2.20;1.22;;;2.50;99.90;;;;;;1962583;72;21172;-73
2021/11/30 04:58:18;;;;;;;2.58;1.67;;;2.50;99.90;;;;;;1969081;72;21063;-73
2021/11/30 05:00:44;;;;;;;6.75;1.67;;;2.50;99.90;;;;;;1947560;72;21486;-74
2021/11/30 05:03:10;;;;;;;3.67;1.30;;;2.40;99.90;;;;;;1968412;72;21148;-75
2021/11/30 05:05:37;;;;;;;8.73;1.75;;;2.50;99.90;;;;;;1954403;72;21136;-73
2021/11/30 05:08:03;;;;;;;4.47;1.70;;;2.50;99.90;;;;;;1963847;72;21031;-73
2021/11/30 05:10:29;;;;;;;3.75;1.42;;;2.50;99.90;;;;;;1953354;72;21062;-73
2021/11/30 05:12:55;;;;;;;2.47;1.62;;;2.50;99.90;;;;;;1957890;72;21125;-72
2021/11/30 05:15:21;;;;;;;3.35;1.67;;;2.50;99.90;;;;;;1971979;73;21200;-73
2021/11/30 05:17:47;;;;;;;3.70;1.75;;;2.50;99.90;;;;;;1972451;72;21274;-73
2021/11/30 05:20:13;;;;;;;2.58;1.42;;;2.50;99.90;;;;;;1956571;72;21117;-73
2021/11/30 05:22:39;;;;;;;8.05;1.20;;;2.50;99.90;;;;;;1949640;72;21478;-73
2021/11/30 05:25:07;;;;;;;1.55;1.45;;;2.50;99.90;;;;;;1964144;72;21440;-73
2021/11/30 05:27:39;;;;;;;1.17;1.15;;;2.50;99.90;;;;;;1969792;72;21110;-73
2021/11/30 05:30:01;;;;;;;4.35;1.80;;;2.50;99.90;;;;;;1948846;72;21087;-73
2021/11/30 05:32:27;;;;;;;17.85;2.15;;;2.50;99.90;;;;;;1945033;72;21054;-73
2021/11/30 05:34:53;;;;;;;3.80;1.90;;;2.40;99.90;;;;;;1955388;72;21144;-73
2021/11/30 05:37:19;;;;;;;2.95;1.35;;;2.40;99.90;;;;;;1962610;72;21122;-73
2021/11/30 05:39:45;;;;;;;4.75;2.10;;;2.40;99.90;;;;;;1968884;72;21059;-74
2021/11/30 05:42:11;;;;;;;3.92;1.65;;;2.40;99.90;;;;;;1959098;72;21019;-73
2021/11/30 05:44:38;;;;;;;3.72;1.85;;;2.40;99.90;;;;;;1969190;72;21028;-73
2021/11/30 05:47:04;;;;;;;4.28;1.90;;;2.40;99.90;;;;;;1964049;72;21172;-74
2021/11/30 05:49:30;;;;;;;3.67;1.87;;;2.40;99.90;;;;;;1957046;72;21491;-74
2021/11/30 05:51:56;;;;;;;5.28;2.10;;;2.40;99.90;;;;;;1952970;72;21486;-75
2021/11/30 05:54:22;;;;;;;2.55;1.42;;;2.40;99.90;;;;;;1962589;72;21145;-75
2021/11/30 05:56:48;;;;;;;2.98;1.90;;;2.40;99.90;;;;;;1948992;72;21055;-75
2021/11/30 05:59:16;;;;;;;3.60;1.87;;;2.30;99.90;;;;;;1974951;72;21055;-74
2021/11/30 06:01:42;;;;;;;2.67;1.90;;;2.30;99.90;;;;;;1954529;72;21555;-75
2021/11/30 06:04:08;;;;;;;3.15;1.87;;;2.30;99.90;;;;;;1959652;72;21028;-76
2021/11/30 06:06:34;;;;;;;3.30;1.77;;;2.40;99.90;;;;;;1966601;72;21055;-75
2021/11/30 06:09:01;;;;;;;1.92;1.67;;;2.30;99.90;;;;;;1961840;72;21060;-73
2021/11/30 06:11:27;;;;;;;2.70;1.92;;;2.30;99.90;;;;;;1953266;72;21059;-75
2021/11/30 06:13:53;;;;;;;4.97;2.00;;;2.40;99.90;;;;;;1944945;72;21059;-75
2021/11/30 06:16:19;;;;;;;3.55;2.15;;;2.30;99.90;;;;;;1967018;72;21071;-74
2021/11/30 06:18:45;;;;;;;3.72;1.98;;;2.30;99.90;;;;;;1975096;72;21055;-74
2021/11/30 06:21:11;;;;;;;2.22;1.72;;;2.30;99.90;;;;;;1946808;72;21075;-76
2021/11/30 06:23:39;;;;;;;2.20;1.65;;;2.30;99.90;;;;;;1949789;72;21432;-75
2021/11/30 06:26:05;;;;;;;2.22;1.80;;;2.40;99.90;;;;;;1965617;72;21126;-74
2021/11/30 06:28:31;;;;;;;4.15;1.90;;;2.40;99.90;;;;;;1963815;72;21503;-75
2021/11/30 06:30:57;;;;;;;1.75;1.65;;;2.40;99.90;;;;;;1971028;72;21036;-74
2021/11/30 06:33:23;;;;;;;4.15;2.08;;;2.40;99.90;;;;;;1956238;72;21055;-76
2021/11/30 06:35:49;;;;;;;4.65;2.08;;;2.40;99.90;;;;;;1965558;72;21186;-74
2021/11/30 06:38:16;;;;;;;4.12;1.70;;;2.30;99.90;;;;;;1967815;72;21173;-75
2021/11/30 06:40:42;;;;;;;7.65;2.45;;;2.30;99.90;;;;;;1957187;72;21069;-74
2021/11/30 06:43:08;;;;;;;5.10;2.10;;;2.30;99.90;;;;;;1969733;72;21063;-75
2021/11/30 06:45:34;;;;;;;2.77;2.08;;;2.20;99.90;;;;;;1966605;72;21683;-76
2021/11/30 06:48:01;;;;;;;5.75;2.35;;;2.10;99.90;;;;;;1963782;72;21580;-77
2021/11/30 06:50:27;;;;;;;5.33;2.10;;;2.00;99.90;;;;;;1974413;72;21028;-75
2021/11/30 06:52:53;;;;;;;4.00;2.08;;;2.00;99.90;;;;;;1968371;72;21040;-75
2021/11/30 06:55:19;;;;;;;2.92;2.15;;;2.00;99.90;;;;;;1951421;72;21051;-75
2021/11/30 06:57:45;;;;;;;4.50;2.22;;;2.00;99.90;;;;;;1959713;72;21129;-74
2021/11/30 07:00:11;;;;;;;2.37;1.90;;;2.10;99.90;;;;;;1961728;72;21063;-74
2021/11/30 07:02:37;;;;;;;2.30;1.50;;;2.00;99.90;;;;;;1961516;72;21056;-73
2021/11/30 07:05:16;;;;;;;4.25;1.77;;;1.90;99.90;;;;;;1966243;72;21476;-74
2021/11/30 07:15:07;;;;;;;1.92;1.72;;;1.80;99.90;;;;;;1973629;72;21044;-73
2021/11/30 07:17:33;;;;;;;2.70;2.00;;;1.90;99.90;;;;;;1948651;72;21432;-72
2021/11/30 07:19:59;;;;;;;2.72;2.00;;;1.90;99.90;;;;;;1960867;72;21155;-72
2021/11/30 07:22:25;;;;;;;2.67;1.90;;;1.90;99.90;;;;;;1949710;72;21139;-73
2021/11/30 07:24:51;;;;;;;7.50;2.40;;;1.90;99.90;;;;;;1959072;72;21123;-72
2021/11/30 07:27:18;;;;;;;2.95;1.95;;;2.00;99.90;;;;;;1956431;72;21043;-72
2021/11/30 07:29:44;;;;;;;6.78;1.82;;;2.10;99.90;;;;;;1960284;72;21055;-72
2021/11/30 07:32:10;;;;;;;2.30;1.85;;;2.10;99.90;;;;;;1954724;72;21023;-71
2021/11/30 07:34:36;;;;;;;4.42;1.87;;;2.20;99.90;;;;;;1961617;72;21115;-71
2021/11/30 07:37:02;;;;;;;2.75;1.67;;;2.20;99.90;;;;;;1960878;72;21059;-72
2021/11/30 07:39:28;;;;;;;5.42;2.17;;;2.20;99.90;;;;;;1964216;72;21136;-73
2021/11/30 07:41:54;;;;;;;2.45;1.40;;;2.30;99.90;;;;;;1969703;72;21158;-73
2021/11/30 07:44:20;;;;;;;3.33;1.67;;;2.30;99.90;;;;;;1953445;72;21058;-73
2021/11/30 07:46:47;;;;;;;4.85;1.90;;;2.30;99.90;;;;;;1960084;72;21031;-73
2021/11/30 07:49:13;;;;;;;2.15;1.40;;;2.30;99.90;;;;;;1957038;72;21483;-72
2021/11/30 07:51:39;;;;;;;1.75;1.47;;;2.30;99.90;;;;;;1975038;72;21475;-73
2021/11/30 07:54:05;;;;;;;3.85;1.45;;;2.40;99.90;;;;;;1967735;72;21125;-73
2021/11/30 07:56:32;;;;;;;6.15;2.02;;;2.40;99.90;;;;;;1956484;72;21119;-72
2021/11/30 07:58:58;;;;;;;1.40;1.30;;;2.40;99.90;;;;;;1972299;73;21044;-72
2021/11/30 08:01:24;;;;;;;2.40;1.40;;;2.40;99.90;;;;;;1972782;72;21050;-72
2021/11/30 08:03:50;;;;;;;3.27;1.60;;;2.40;99.90;;;;;;1959856;72;21058;-73
2021/11/30 08:06:17;;;;;;;2.77;1.52;;;2.50;99.90;;;;;;1962894;72;21238;-72
2021/11/30 08:08:43;;;;;;;3.17;1.62;;;2.50;99.90;;;;;;1960792;72;21121;-75
2021/11/30 08:11:14;;;;;;;1.37;1.20;;;2.60;99.90;;;;;;1956848;72;21253;-73
2021/11/30 08:13:41;;;;;;;2.33;1.25;;;2.50;99.90;;;;;;1966941;72;21281;-73
2021/11/30 08:16:07;;;;;;;3.05;1.50;;;2.50;99.90;;;;;;1973875;72;21227;-73
2021/11/30 08:18:33;;;;;;;1.35;1.10;;;2.50;99.90;;;;;;1973193;73;21487;-73
2021/11/30 08:20:59;;;;;;;2.62;1.42;;;2.50;99.90;;;;;;1962916;72;21459;-72
2021/11/30 08:23:25;;;;;;;1.47;1.17;;;2.60;99.90;;;;;;1971675;72;21436;-73
2021/11/30 08:25:51;;;;;;;1.57;1.22;;;2.50;99.90;;;;;;1949769;72;21049;-73
2021/11/30 08:28:18;;;;;;;4.03;1.32;;;2.50;99.90;;;;;;1945281;72;21132;-73
2021/11/30 08:30:44;;;;;;;2.67;1.35;;;2.60;99.90;;;;;;1962748;72;21105;-74
2021/11/30 08:33:10;;;;;;;2.20;1.10;;;2.60;99.90;;;;;;1951311;72;21595;-73
2021/11/30 08:35:36;;;;;;;1.80;1.30;;;2.60;99.90;;;;;;1969821;72;21519;-73
2021/11/30 08:38:02;;;;;;;1.40;1.10;;;2.60;99.90;;;;;;1965539;72;21125;-73
2021/11/30 08:40:28;;;;;;;2.37;1.42;;;2.60;99.90;;;;;;1951460;72;21055;-74
2021/11/30 08:42:54;;;;;;;1.65;1.12;;;2.60;99.90;;;;;;1973118;73;21056;-72
2021/11/30 08:45:21;;;;;;;3.05;1.40;;;2.70;99.90;;;;;;1959775;72;21058;-72
2021/11/30 08:47:47;;;;;;;2.35;1.27;;;2.60;99.90;;;;;;1960810;72;21058;-73
2021/11/30 08:50:13;;;;;;;5.75;1.50;;;2.60;99.90;;;;;;1947228;72;21039;-72
2021/11/30 08:52:39;;;;;;;1.45;1.10;;;2.60;99.90;;;;;;1969716;72;21032;-73
2021/11/30 08:55:05;;;;;;;3.22;1.40;;;2.60;99.90;;;;;;1968995;72;21067;-73
2021/11/30 08:57:31;;;;;;;1.05;0.98;;;2.70;99.90;;;;;;1969112;72;21470;-74
2021/11/30 08:59:57;;;;;;;2.75;1.25;;;2.70;99.90;;;;;;1973167;73;21448;-73
2021/11/30 09:02:24;;;;;;;1.12;1.00;;;2.70;99.90;;;;;;1969983;73;21141;-73
2021/11/30 09:04:50;;;;;;;6.20;1.37;;;2.70;99.90;;;;;;1970352;72;21133;-72
2021/11/30 09:07:17;;;;;;;1.17;1.07;;;2.70;99.90;;;;;;1971146;73;21499;-72
2021/11/30 09:09:44;;;;;;;3.50;1.30;;;2.70;99.90;;;;;;1963830;72;21066;-71
2021/11/30 09:12:10;;;;;;;1.35;1.20;;;2.80;99.90;;;;;;1954119;72;21182;-72
2021/11/30 09:14:36;;;;;;;1.45;1.10;;;2.80;99.90;;;;;;1973958;72;21145;-72
2021/11/30 09:17:03;;;;;;;3.22;1.22;;;2.80;99.90;;;;;;1970495;72;21132;-72
2021/11/30 09:19:29;;;;;;;1.42;1.30;;;2.90;99.90;;;;;;1961821;72;21463;-72
2021/11/30 09:21:55;;;;;;;1.67;1.07;;;2.90;99.90;;;;;;1966367;72;21487;-72
2021/11/30 09:24:25;;;;;;;1.20;1.10;;;3.00;99.90;;;;;;1950073;72;21038;-74
2021/11/30 09:26:56;;;;;;;2.33;1.07;;;2.90;99.90;;;;;;1952057;72;21580;-73
2021/11/30 09:29:23;;;;;;;3.27;1.50;;;2.90;99.90;;;;;;1949560;72;21035;-75
2021/11/30 09:31:49;;;;;;;2.70;1.17;;;2.90;99.90;;;;;;1965222;72;21052;-75
2021/11/30 09:34:16;;;;;;;3.33;1.20;;;2.90;99.90;;;;;;1974162;72;21071;-75
2021/11/30 09:36:45;;;;;;;3.65;1.22;;;2.90;99.90;;;;;;1964531;72;21054;-76
2021/11/30 09:39:10;;;;;;;1.15;1.10;;;3.00;99.90;;;;;;1956971;72;21096;-74
2021/11/30 09:41:36;;;;;;;1.87;1.05;;;3.00;99.90;;;;;;1947242;72;21047;-75
2021/11/30 09:44:02;;;;;;;1.45;1.35;;;2.90;99.90;;;;;;1949311;72;21175;-74
2021/11/30 09:46:28;;;;;;;1.42;1.00;;;3.00;99.90;;;;;;1969603;72;21129;-74
2021/11/30 09:48:54;;;;;;;2.37;1.10;;;3.00;99.90;;;;;;1953940;72;21036;-74
2021/11/30 09:51:20;;;;;;;2.45;0.95;;;3.00;99.90;;;;;;1952065;72;21112;-74
2021/11/30 09:53:46;;;;;;;1.55;1.00;;;3.10;99.90;;;;;;1940235;72;21471;-76
2021/11/30 09:56:13;;;;;;;2.10;1.10;;;3.10;99.90;;;;;;1952985;72;21105;-73
2021/11/30 09:58:39;;;;;;;0.88;0.80;;;3.10;99.90;;;;;;1974193;72;21051;-73
2021/11/30 10:01:05;;;;;;;1.80;0.93;;;3.10;99.90;;;;;;1956014;72;21202;-75
2021/11/30 10:03:32;;;;;;;1.15;0.88;;;3.10;99.90;;;;;;1955112;72;21482;-75
2021/11/30 10:05:58;;;;;;;1.12;0.95;;;3.10;99.90;;;;;;1969232;72;21180;-75
2021/11/30 10:08:24;;;;;;;1.37;0.90;;;3.10;99.90;;;;;;1968322;72;21252;-74
2021/11/30 10:10:50;;;;;;;1.65;0.88;;;3.10;99.90;;;;;;1965927;72;21137;-74
2021/11/30 10:13:16;;;;;;;2.90;0.90;;;3.00;99.90;;;;;;1963805;72;21051;-75
2021/11/30 10:15:42;;;;;;;1.47;1.10;;;3.00;99.90;;;;;;1940187;72;21039;-74
2021/11/30 10:18:08;;;;;;;1.52;0.85;;;3.10;99.90;;;;;;1964824;72;21038;-75
2021/11/30 10:20:34;;;;;;;0.80;0.80;;;3.10;99.90;;;;;;1963270;72;21235;-74
2021/11/30 10:23:01;;;;;;;2.92;0.90;;;3.10;99.90;;;;;;1973130;72;21643;-74
2021/11/30 10:25:27;;;;;;;1.45;0.80;;;3.00;99.90;;;;;;1962616;72;21050;-75
2021/11/30 10:27:53;;;;;;;2.87;0.90;;;3.10;99.90;;;;;;1961798;72;21451;-76
2021/11/30 10:30:19;;;;;;;1.05;0.98;;;3.10;99.90;;;;;;1956457;72;21060;-74
2021/11/30 10:32:46;;;;;;;1.47;0.72;;;3.10;99.90;;;;;;1969098;72;21192;-74
2021/11/30 10:35:13;;;;;;;0.65;0.65;;;3.10;99.90;;;;;;1947312;72;21144;-75
2021/11/30 10:37:39;;;;;;;1.02;0.80;;;3.00;99.90;;;;;;1964570;72;21062;-76
2021/11/30 10:40:05;;;;;;;6.05;1.10;;;2.90;99.90;;;;;;1918233;72;21426;-76
2021/11/30 10:42:31;;;;;;;2.15;0.90;;;2.80;99.90;;;;;;1969944;72;21523;-73
2021/11/30 10:44:58;;;;;;;1.72;1.00;;;2.80;99.90;;;;;;1975465;72;21234;-75
2021/11/30 10:47:24;;;;;;;0.72;0.72;;;2.90;99.90;;;;;;1970182;72;21028;-75
2021/11/30 10:49:50;;;;;;;5.80;1.30;;;2.80;99.90;;;;;;1954503;72;21113;-75
2021/11/30 10:52:17;;;;;;;1.77;0.95;;;2.80;99.90;;;;;;1971798;73;21032;-74
2021/11/30 10:54:43;;;;;;;2.70;1.02;;;2.80;99.90;;;;;;1962668;72;21174;-74
2021/11/30 10:57:09;;;;;;;0.70;0.65;;;2.90;99.90;;;;;;1964270;72;21104;-75
2021/11/30 10:59:35;;;;;;;1.60;0.72;;;2.80;99.90;;;;;;1947058;72;21439;-75
2021/11/30 11:02:01;;;;;;;1.90;1.10;;;2.80;99.90;;;;;;1975191;72;21028;-76
2021/11/30 11:04:27;;;;;;;3.50;0.72;;;2.80;99.90;;;;;;1965036;72;21178;-74
2021/11/30 11:06:54;;;;;;;2.12;0.80;;;2.80;99.90;;;;;;1959630;72;21062;-75
2021/11/30 11:09:20;;;;;;;3.25;1.37;;;2.80;99.90;;;;;;1961553;72;21056;-72
2021/11/30 11:11:46;;;;;;;0.85;0.70;;;2.80;99.90;;;;;;1968680;72;21071;-73
2021/11/30 11:14:12;;;;;;;0.70;0.62;;;2.70;99.90;;;;;;1965557;72;21370;-73
2021/11/30 11:16:38;;;;;;;1.45;0.65;;;2.50;99.90;;;;;;1964787;72;21172;-74
2021/11/30 11:19:04;;;;;;;1.00;0.90;;;2.50;99.90;;;;;;1963663;72;21063;-74
2021/11/30 11:21:31;;;;;;;0.80;0.80;;;2.50;99.90;;;;;;1971429;73;21055;-72
2021/11/30 11:23:57;;;;;;;1.32;0.82;;;2.50;99.90;;;;;;1977258;72;21047;-74
2021/11/30 11:26:24;;;;;;;0.75;0.75;;;2.40;99.90;;;;;;1965909;72;21093;-74
2021/11/30 11:28:50;;;;;;;3.42;1.00;;;2.40;99.90;;;;;;1966486;72;21053;-74
2021/11/30 11:31:16;;;;;;;1.00;0.90;;;2.50;99.90;;;;;;1968141;72;21036;-74
2021/11/30 11:33:42;;;;;;;1.17;1.00;;;2.60;99.90;;;;;;1956501;72;21238;-74
2021/11/30 11:36:10;;;;;;;1.25;1.05;;;2.60;99.90;;;;;;1963518;72;21063;-74
2021/11/30 11:38:36;;;;;;;3.50;1.30;;;2.70;99.90;;;;;;1972638;72;21092;-74
2021/11/30 11:41:02;;;;;;;2.65;1.00;;;2.60;99.90;;;;;;1962020;72;21183;-73
2021/11/30 11:43:29;;;;;;;1.85;0.80;;;2.60;99.90;;;;;;1958027;72;21121;-73
2021/11/30 11:45:55;;;;;;;2.72;0.90;;;2.70;99.90;;;;;;1963301;72;21148;-75
2021/11/30 11:48:21;;;;;;;1.32;0.78;;;2.70;99.90;;;;;;1945280;72;21066;-74
2021/11/30 11:50:47;;;;;;;2.85;0.80;;;2.70;99.90;;;;;;1971540;72;22007;-74
2021/11/30 11:53:13;;;;;;;0.85;0.82;;;2.70;99.90;;;;;;1968780;72;21604;-73
2021/11/30 11:55:40;;;;;;;0.70;0.70;;;2.80;99.90;;;;;;1958781;72;21428;-75
2021/11/30 11:58:09;;;;;;;1.27;1.17;;;2.80;99.90;;;;;;1951150;72;21036;-73
2021/11/30 12:00:34;;;;;;;1.75;0.80;;;2.90;99.90;;;;;;1974098;72;21194;-73
2021/11/30 12:03:00;;;;;;;0.82;0.70;;;2.90;99.90;;;;;;1961349;72;21211;-74
2021/11/30 12:05:26;;;;;;;0.60;0.60;;;3.00;99.90;;;;;;1945147;72;21049;-75
2021/11/30 12:07:52;;;;;;;0.82;0.53;;;3.00;99.90;;;;;;1968228;72;21067;-75
2021/11/30 12:10:18;;;;;;;0.90;0.90;;;3.00;99.90;;;;;;1974245;72;21032;-73
2021/11/30 12:12:44;;;;;;;2.40;1.32;;;3.10;99.90;;;;;;1946101;72;21063;-74
2021/11/30 12:15:13;;;;;;;3.17;0.93;;;3.00;99.90;;;;;;1974748;72;21055;-74
2021/11/30 12:17:39;;;;;;;1.00;0.85;;;3.00;99.90;;;;;;1970440;72;21079;-76
2021/11/30 12:20:06;;;;;;;3.20;0.88;;;3.00;99.90;;;;;;1945330;72;21166;-76
2021/11/30 12:22:33;;;;;;;0.60;0.60;;;3.10;99.90;;;;;;1970097;72;21115;-74
2021/11/30 12:24:59;;;;;;;0.85;0.85;;;3.10;99.90;;;;;;1965537;72;21023;-75
2021/11/30 12:27:25;;;;;;;1.55;1.05;;;3.10;99.90;;;;;;1941694;72;21444;-75
2021/11/30 12:29:52;;;;;;;0.82;0.62;;;3.10;99.90;;;;;;1972509;72;21133;-76
2021/11/30 12:32:18;;;;;;;3.90;0.90;;;3.20;99.90;;;;;;1959050;71;21203;-75
2021/11/30 12:34:46;;;;;;;1.97;0.63;;;3.10;99.90;;;;;;1969978;73;21142;-75
2021/11/30 12:37:14;;;;;;;0.75;0.75;;;3.10;99.90;;;;;;1965494;72;21506;-75
2021/11/30 12:39:40;;;;;;;2.47;0.90;;;3.10;99.90;;;;;;1954794;72;21195;-75
2021/11/30 12:42:06;;;;;;;1.65;0.90;;;3.10;99.90;;;;;;1963976;72;21122;-75
2021/11/30 12:44:32;;;;;;;1.37;0.80;;;3.10;99.90;;;;;;1973660;72;21476;-75
2021/11/30 12:46:58;;;;;;;1.55;0.70;;;3.00;99.90;;;;;;1972492;72;21541;-74
2021/11/30 12:49:24;;;;;;;0.75;0.75;;;3.00;99.90;;;;;;1973336;73;21463;-74
2021/11/30 12:51:50;;;;;;;1.25;0.88;;;3.00;99.90;;;;;;1969699;72;21063;-75
2021/11/30 12:54:16;;;;;;;3.00;0.90;;;3.00;99.90;;;;;;1965766;72;21063;-74
2021/11/30 12:56:42;;;;;;;1.22;1.05;;;3.00;99.90;;;;;;1970006;72;21032;-74
2021/11/30 12:59:09;;;;;;;0.93;0.82;;;3.00;99.90;;;;;;1955251;72;21112;-74
2021/11/30 13:01:35;;;;;;;0.98;0.80;;;3.00;99.90;;;;;;1972693;72;21043;-76
2021/11/30 13:04:01;;;;;;;1.42;0.88;;;3.00;99.90;;;;;;1965586;72;21156;-75